Time;durP1;ratioP1;P1;durP2;ratioP2;P2;SDS_P1;SDS_P2;PMS_P1;PMS_P2;Temp;Humidity;BMP_temperature;BMP_pressure;BME280_temperature;BME280_humidity;BME280_pressure;Samples;Min_cycle;Max_cycle;Signal;HPM_P1;HPM_P2
2023/05/30 00:01:01;;;;;;;13.07;2.85;;;8.20;99.90;;;6.94;80.52;101822.56;4948468;28;20046;-76
2023/05/30 00:03:27;;;;;;;11.80;3.15;;;8.20;99.90;;;6.90;80.83;101818.25;4943489;28;20031;-77
2023/05/30 00:05:56;;;;;;;9.27;2.95;;;8.20;99.90;;;6.86;80.99;101824.44;4953218;28;20037;-76
2023/05/30 00:08:29;;;;;;;14.25;3.67;;;8.10;99.90;;;6.82;81.31;101820.97;4949762;28;20023;-77
2023/05/30 00:10:56;;;;;;;17.25;3.20;;;8.10;99.90;;;6.77;81.57;101822.78;4946845;28;20495;-77
2023/05/30 00:13:22;;;;;;;9.90;2.85;;;8.00;99.90;;;6.72;81.72;101820.25;4961618;28;20070;-76
2023/05/30 00:15:55;;;;;;;15.18;3.10;;;8.00;99.90;;;6.68;81.98;101821.16;4966230;28;20034;-77
2023/05/30 00:18:23;;;;;;;14.38;3.63;;;7.90;99.90;;;6.66;81.78;101830.78;4946481;28;22199;-76
2023/05/30 00:20:53;;;;;;;15.00;3.97;;;7.90;99.90;;;6.64;81.97;101829.94;4959024;28;20030;-76
2023/05/30 00:23:20;;;;;;;12.15;3.20;;;7.90;99.90;;;6.62;82.53;101826.47;4945061;28;20042;-76
2023/05/30 00:25:46;;;;;;;12.80;2.97;;;7.90;99.90;;;6.61;82.20;101832.59;4962443;28;20043;-76
2023/05/30 00:28:12;;;;;;;20.90;3.63;;;7.80;99.90;;;6.60;82.41;101833.47;4942316;28;20115;-76
2023/05/30 00:30:38;;;;;;;14.80;3.30;;;7.80;99.90;;;6.58;83.00;101830.00;4965231;28;20031;-77
2023/05/30 00:33:04;;;;;;;18.17;3.83;;;7.90;99.90;;;6.60;82.71;101832.63;4962997;28;20474;-76
2023/05/30 00:35:29;;;;;;;20.00;4.03;;;7.80;99.90;;;6.60;83.09;101836.09;4977291;28;20037;-76
2023/05/30 00:37:55;;;;;;;14.23;3.60;;;7.80;99.90;;;6.56;83.64;101834.41;4935467;28;20030;-76
2023/05/30 00:40:21;;;;;;;9.68;2.70;;;7.80;99.90;;;6.51;83.63;101838.81;4974156;28;20039;-77
2023/05/30 00:42:47;;;;;;;13.13;3.20;;;7.70;99.90;;;6.41;83.63;101845.03;4959324;28;20035;-76
2023/05/30 00:45:15;;;;;;;12.18;3.38;;;7.70;99.90;;;6.32;83.08;101844.25;4953167;28;20110;-76
2023/05/30 00:47:41;;;;;;;16.40;3.72;;;7.60;99.90;;;6.24;83.86;101845.22;4964289;28;20058;-77
2023/05/30 00:50:08;;;;;;;11.80;3.28;;;7.50;99.90;;;6.19;84.10;101845.28;4945003;28;20132;-76
2023/05/30 00:52:35;;;;;;;14.35;3.17;;;7.50;99.90;;;6.14;85.35;101854.94;4949983;28;20046;-76
2023/05/30 00:55:02;;;;;;;10.40;2.85;;;7.40;99.90;;;6.10;85.61;101851.47;4961076;28;20157;-77
2023/05/30 00:57:33;;;;;;;15.93;3.83;;;7.40;99.90;;;6.06;85.10;101854.13;4938602;28;20039;-76
2023/05/30 01:00:02;;;;;;;16.80;3.45;;;7.30;99.90;;;6.02;84.60;101855.03;4963396;28;20031;-76
2023/05/30 01:02:32;;;;;;;12.05;2.53;;;7.30;99.90;;;5.95;84.56;101854.25;4946990;28;20046;-76
2023/05/30 01:04:59;;;;;;;6.68;1.92;;;7.20;99.90;;;5.79;83.89;101856.09;4958376;28;20467;-76
2023/05/30 01:07:27;;;;;;;3.67;1.52;;;7.00;99.90;;;5.62;83.03;101850.16;4961482;28;20030;-76
2023/05/30 01:09:54;;;;;;;4.65;2.25;;;6.90;99.90;;;5.42;82.82;101851.19;4956390;28;20117;-76
2023/05/30 01:13:04;;;;;;;5.82;2.10;;;6.80;99.90;;;5.28;82.35;101847.78;4959609;28;20088;-76
2023/05/30 01:15:47;;;;;;;6.85;2.20;;;6.60;99.90;;;5.15;82.42;101839.16;4919456;28;20030;-76
2023/05/30 01:18:25;;;;;;;10.35;2.67;;;6.50;99.90;;;5.04;82.85;101841.84;4956928;28;20128;-76
2023/05/30 01:20:59;;;;;;;8.57;3.40;;;6.40;99.90;;;4.96;83.06;101835.78;4966848;28;20033;-76
2023/05/30 01:23:43;;;;;;;25.13;4.38;;;6.30;99.90;;;4.92;84.05;101827.13;4934193;28;20480;-76
2023/05/30 01:26:42;;;;;;;9.15;3.25;;;6.30;99.90;;;4.90;84.57;101833.19;4957803;28;20031;-76
2023/05/30 01:29:17;;;;;;;14.82;2.80;;;6.30;99.90;;;4.88;85.20;101840.16;4960550;28;20536;-76
2023/05/30 01:31:44;;;;;;;18.10;3.97;;;6.20;99.90;;;4.87;85.56;101839.31;4962130;28;20114;-76
2023/05/30 01:34:12;;;;;;;19.70;3.45;;;6.20;99.90;;;4.87;85.51;101838.44;4954687;28;20061;-76
2023/05/30 01:36:38;;;;;;;14.68;3.55;;;6.20;99.90;;;4.89;85.89;101841.91;4972001;28;20708;-77
2023/05/30 01:39:04;;;;;;;20.30;4.60;;;6.20;99.90;;;4.91;86.19;101850.59;4945111;28;20041;-76
2023/05/30 01:41:57;;;;;;;19.75;5.35;;;6.20;99.90;;;4.97;86.87;101842.75;4950079;28;20514;-76
2023/05/30 01:44:30;;;;;;;16.90;4.85;;;6.30;99.90;;;4.97;87.50;101842.75;4977551;28;20027;-76
2023/05/30 01:47:12;;;;;;;25.85;4.72;;;6.30;99.90;;;5.00;88.39;101845.34;4969238;28;20039;-76
2023/05/30 01:49:50;;;;;;;15.27;5.35;;;6.30;99.90;;;5.01;89.03;101847.09;4961106;28;21063;-76
2023/05/30 01:52:20;;;;;;;18.20;4.38;;;6.30;99.90;;;5.01;89.73;101852.31;4949677;28;20039;-76
2023/05/30 01:54:54;;;;;;;17.70;4.50;;;6.30;99.90;;;4.94;90.14;101851.44;4965428;28;20154;-76
2023/05/30 01:57:22;;;;;;;15.55;4.55;;;6.30;99.90;;;4.90;90.27;101854.06;4960775;28;20050;-76
2023/05/30 01:59:49;;;;;;;20.10;3.92;;;6.20;99.90;;;4.82;90.40;101853.28;4942122;28;20114;-76
2023/05/30 02:02:15;;;;;;;15.30;4.30;;;6.10;99.90;;;4.72;89.61;101855.91;4957483;28;20464;-76
2023/05/30 02:04:43;;;;;;;11.45;2.45;;;6.10;99.90;;;4.65;89.52;101854.19;4965475;28;20109;-76
2023/05/30 02:07:10;;;;;;;14.70;3.47;;;6.00;99.90;;;4.59;88.62;101853.38;4950905;28;20139;-76
2023/05/30 02:09:36;;;;;;;25.52;4.72;;;5.90;99.90;;;4.54;88.48;101860.34;4951435;28;20045;-76
2023/05/30 02:12:03;;;;;;;16.27;5.10;;;5.90;99.90;;;4.52;88.63;101858.59;4958886;28;20050;-76
2023/05/30 02:14:30;;;;;;;16.90;5.65;;;5.90;99.90;;;4.52;89.09;101855.13;4941429;28;20463;-76
2023/05/30 02:16:59;;;;;;;19.25;4.60;;;5.90;99.90;;;4.51;89.22;101866.41;4940651;28;20070;-77
2023/05/30 02:19:25;;;;;;;18.98;4.70;;;5.80;99.90;;;4.49;89.20;101861.22;4936495;28;20055;-76
2023/05/30 02:21:51;;;;;;;18.95;5.57;;;5.80;99.90;;;4.49;90.05;101857.72;4948119;28;20474;-76
2023/05/30 02:24:17;;;;;;;18.20;5.43;;;5.80;99.90;;;4.50;90.20;101857.72;4953997;28;20102;-76
2023/05/30 02:26:42;;;;;;;18.25;5.30;;;5.80;99.90;;;4.54;90.50;101866.44;4961568;28;20474;-76
2023/05/30 02:29:08;;;;;;;19.23;5.45;;;5.90;99.90;;;4.59;91.05;101869.00;4954838;28;20039;-76
2023/05/30 02:31:34;;;;;;;16.17;4.75;;;5.90;99.90;;;4.62;91.35;101864.66;4960145;28;20042;-76
2023/05/30 02:34:03;;;;;;;16.27;4.78;;;6.00;99.90;;;4.68;91.93;101867.22;4961009;28;20050;-76
2023/05/30 02:36:28;;;;;;;21.48;5.22;;;6.00;99.90;;;4.74;92.16;101866.34;4935486;28;20149;-76
2023/05/30 02:38:54;;;;;;;20.75;6.00;;;6.00;99.90;;;4.80;92.79;101871.53;4948574;28;20166;-77
2023/05/30 02:41:21;;;;;;;21.88;6.60;;;6.10;99.90;;;4.91;92.94;101879.31;4952772;28;20038;-76
2023/05/30 02:43:47;;;;;;;16.52;4.85;;;6.20;99.90;;;5.00;93.44;101881.88;4964420;28;20026;-76
2023/05/30 02:46:13;;;;;;;21.23;4.95;;;6.30;99.90;;;5.07;93.83;101882.72;4965645;28;20051;-76
2023/05/30 02:48:38;;;;;;;15.65;4.45;;;6.30;99.90;;;5.15;93.96;101886.16;4947507;28;20042;-76
2023/05/30 02:51:04;;;;;;;16.65;4.35;;;6.40;99.90;;;5.22;93.98;101877.41;4942946;28;20133;-76
2023/05/30 02:53:30;;;;;;;10.45;3.58;;;6.40;99.90;;;5.25;94.07;101879.16;4960348;28;20039;-76
2023/05/30 02:55:56;;;;;;;11.63;4.00;;;6.50;99.90;;;5.30;93.51;101882.59;4959564;28;20035;-76
2023/05/30 02:58:22;;;;;;;9.93;2.97;;;6.50;99.90;;;5.27;92.77;101886.09;4959494;28;20046;-76
2023/05/30 03:00:49;;;;;;;9.00;2.58;;;6.50;99.90;;;5.24;91.41;101890.47;4961845;28;20035;-76
2023/05/30 03:03:15;;;;;;;5.40;2.55;;;6.40;99.90;;;5.12;89.36;101891.41;4961114;28;20057;-76
2023/05/30 03:05:41;;;;;;;6.47;2.13;;;6.40;99.90;;;5.03;87.87;101889.72;4966561;28;20034;-76
2023/05/30 03:08:07;;;;;;;13.50;3.20;;;6.30;99.90;;;4.97;86.98;101884.53;4962056;28;20070;-76
2023/05/30 03:10:33;;;;;;;19.90;4.55;;;6.30;99.90;;;4.97;86.51;101894.97;4939716;28;20589;-76
2023/05/30 03:13:00;;;;;;;15.15;4.57;;;6.20;99.90;;;4.98;86.80;101888.84;4976046;28;20038;-76
2023/05/30 03:15:26;;;;;;;24.08;5.32;;;6.30;99.90;;;5.00;87.09;101887.09;4945857;28;20039;-76
2023/05/30 03:17:52;;;;;;;13.90;4.28;;;6.30;99.90;;;4.97;87.53;101892.34;4965324;28;20580;-76
2023/05/30 03:20:18;;;;;;;11.52;3.95;;;6.20;99.90;;;4.89;87.73;101883.69;4946122;28;20110;-77
2023/05/30 03:22:44;;;;;;;13.07;4.35;;;6.20;99.90;;;4.87;87.47;101893.25;4954333;28;20178;-76
2023/05/30 03:25:12;;;;;;;10.60;4.05;;;6.10;99.90;;;4.85;87.69;101895.00;4953666;28;20045;-76
2023/05/30 03:27:37;;;;;;;16.75;5.15;;;6.10;99.90;;;4.86;87.74;101888.91;4952894;28;20054;-76
2023/05/30 03:30:05;;;;;;;20.17;5.63;;;6.10;99.90;;;4.91;88.41;101895.84;4947861;28;20474;-76
2023/05/30 03:32:31;;;;;;;15.27;5.25;;;6.20;99.90;;;4.97;88.98;101889.75;4970682;28;20023;-76
2023/05/30 03:34:57;;;;;;;21.48;3.92;;;6.20;99.90;;;5.02;89.49;101884.50;4961915;28;20057;-76
2023/05/30 03:37:23;;;;;;;11.35;3.53;;;6.30;99.90;;;5.06;89.56;101883.59;4960787;28;20407;-76
2023/05/30 03:39:49;;;;;;;10.85;3.55;;;6.40;99.90;;;5.18;88.66;101896.56;4946369;28;20037;-76
2023/05/30 03:42:15;;;;;;;18.05;4.20;;;6.50;99.90;;;5.28;87.96;101886.94;4968679;28;20031;-76
2023/05/30 03:44:41;;;;;;;12.55;4.20;;;6.50;99.90;;;5.40;87.83;101894.72;4964016;28;20038;-76
2023/05/30 03:47:07;;;;;;;18.85;4.18;;;6.60;99.90;;;5.53;87.69;101906.81;4962868;28;20030;-76
2023/05/30 03:49:32;;;;;;;15.48;4.30;;;6.70;99.90;;;5.67;87.87;101908.47;4965071;28;20046;-76
2023/05/30 03:51:58;;;;;;;16.73;4.85;;;6.90;99.90;;;5.85;87.58;101912.66;4954577;28;20035;-76
2023/05/30 03:54:24;;;;;;;14.57;3.95;;;7.00;99.90;;;6.00;88.04;101914.31;4967987;28;20111;-76
2023/05/30 03:56:50;;;;;;;13.70;3.97;;;7.20;99.90;;;6.14;87.92;101918.56;4959847;28;20580;-76
2023/05/30 03:59:17;;;;;;;13.55;4.22;;;7.30;99.90;;;6.32;88.00;101922.75;4979028;28;20070;-76
2023/05/30 04:01:43;;;;;;;10.55;4.07;;;7.50;99.90;;;6.53;87.88;101928.66;4955419;28;20039;-76
2023/05/30 04:04:08;;;;;;;20.35;4.35;;;7.70;99.90;;;6.74;88.10;101938.88;4949776;28;20135;-77
2023/05/30 04:06:36;;;;;;;22.38;5.07;;;7.80;99.90;;;7.00;88.23;101937.72;4967816;28;20129;-77
2023/05/30 04:09:03;;;;;;;13.10;5.00;;;8.10;99.90;;;7.26;88.28;101939.13;4971113;28;20042;-76
2023/05/30 04:11:30;;;;;;;17.50;4.85;;;8.40;99.90;;;7.53;87.91;101949.22;4964699;28;20035;-76
2023/05/30 04:13:56;;;;;;;19.42;4.63;;;8.60;99.90;;;7.80;87.25;101954.94;4965134;28;20045;-76
2023/05/30 04:16:21;;;;;;;23.25;5.05;;;8.80;99.90;;;8.06;87.48;101958.91;4959175;28;20035;-76
2023/05/30 04:18:47;;;;;;;15.27;4.60;;;9.10;99.90;;;8.32;86.73;101967.22;4969149;28;20039;-76
2023/05/30 04:21:14;;;;;;;17.65;4.90;;;9.30;99.90;;;8.58;86.85;101966.78;4957578;28;20145;-77
2023/05/30 04:23:40;;;;;;;14.10;4.60;;;9.50;99.90;;;8.87;85.73;101972.34;4961026;28;20070;-77
2023/05/30 04:26:08;;;;;;;13.23;4.55;;;9.80;99.90;;;9.14;85.39;101961.28;4964428;28;20039;-76
2023/05/30 04:28:38;;;;;;;17.83;4.95;;;10.10;99.90;;;9.44;84.83;101962.41;4967147;28;20031;-76
2023/05/30 04:31:05;;;;;;;15.88;4.85;;;10.30;99.90;;;9.78;84.84;101966.00;4968952;28;20128;-76
2023/05/30 04:33:35;;;;;;;14.30;4.97;;;10.60;99.90;;;10.12;84.13;101965.22;4962199;28;20041;-76
2023/05/30 04:36:05;;;;;;;14.75;5.57;;;10.90;99.90;;;10.50;83.15;101961.63;4956709;28;20031;-76
2023/05/30 04:38:34;;;;;;;14.15;5.32;;;11.30;99.90;;;10.93;82.48;101965.72;4969308;28;20031;-77
2023/05/30 04:41:04;;;;;;;17.73;5.20;;;11.60;99.90;;;11.50;81.68;101970.16;4956537;28;20039;-76
2023/05/30 04:43:31;;;;;;;15.60;4.63;;;12.20;99.90;;;12.23;79.68;101974.03;4939038;28;20030;-76
2023/05/30 04:46:00;;;;;;;18.15;5.03;;;12.80;99.90;;;13.21;78.04;101974.94;4964920;28;20530;-76
2023/05/30 04:48:29;;;;;;;15.43;4.78;;;13.50;99.90;;;14.44;75.10;101987.72;4961169;28;20042;-76
2023/05/30 04:50:56;;;;;;;16.02;3.90;;;14.90;99.90;;;16.78;69.22;102006.75;4967205;28;20117;-76
2023/05/30 04:53:23;;;;;;;11.07;3.55;;;16.20;99.90;;;18.32;63.52;102009.81;4948849;28;20039;-76
2023/05/30 04:55:50;;;;;;;19.85;3.40;;;17.50;99.90;;;19.81;59.19;102015.81;4966418;28;20039;-77
2023/05/30 04:58:16;;;;;;;14.07;3.70;;;19.20;99.90;;;22.66;52.88;102039.44;4955823;28;20412;-77
2023/05/30 05:00:43;;;;;;;13.32;3.15;;;20.60;99.90;;;23.42;50.09;102043.28;4956221;28;20030;-77
2023/05/30 05:03:09;;;;;;;11.18;3.15;;;22.10;99.90;;;26.08;44.71;102066.38;4965525;28;20034;-76
2023/05/30 05:05:35;;;;;;;14.27;3.10;;;23.90;97.20;;;28.20;41.26;102085.78;4968808;28;20412;-76
2023/05/30 05:08:01;;;;;;;11.93;2.80;;;25.50;94.70;;;29.57;38.55;102098.84;4946855;28;20039;-75
2023/05/30 05:10:27;;;;;;;15.13;3.33;;;26.80;91.50;;;30.76;36.32;102106.72;4958209;28;20031;-75
2023/05/30 05:12:53;;;;;;;12.25;3.00;;;27.90;88.10;;;31.52;34.51;102115.41;4958767;28;20081;-75
2023/05/30 05:15:19;;;;;;;10.95;2.83;;;28.40;84.80;;;31.53;33.86;102127.97;4959887;28;20042;-75
2023/05/30 05:17:45;;;;;;;8.45;2.58;;;28.90;83.30;;;31.85;33.14;102134.31;4957976;28;20125;-75
2023/05/30 05:20:12;;;;;;;8.98;2.40;;;29.10;83.50;;;32.14;32.66;102130.06;4965091;28;20443;-75
2023/05/30 05:22:38;;;;;;;15.90;3.10;;;29.40;82.60;;;32.54;31.89;102139.88;4969814;28;20050;-74
2023/05/30 05:25:04;;;;;;;7.28;2.30;;;29.70;80.80;;;32.76;31.17;102154.50;4961432;28;20049;-75
2023/05/30 05:27:30;;;;;;;8.85;2.38;;;29.90;79.60;;;32.80;31.07;102161.28;4956091;28;20039;-75
2023/05/30 05:29:56;;;;;;;10.95;2.92;;;30.10;78.10;;;33.19;30.12;102165.72;4957786;28;20049;-75
2023/05/30 05:32:23;;;;;;;;;;;30.10;81.00;;;33.77;28.65;102190.50;4964475;28;20066;-75
2023/05/30 05:34:49;;;;;;;7.47;2.55;;;30.50;76.80;;;33.51;29.74;102197.25;4946901;28;19925;-75
2023/05/30 05:37:15;;;;;;;10.55;2.50;;;30.60;76.80;;;33.92;29.18;102212.34;4918304;28;20377;-75
2023/05/30 05:39:42;;;;;;;6.68;2.67;;;30.90;74.50;;;33.68;28.49;102218.97;4965292;28;20050;-75
2023/05/30 05:42:07;;;;;;;8.57;2.60;;;30.80;75.00;;;33.44;29.23;102220.91;4982071;28;20038;-75
2023/05/30 05:44:34;;;;;;;11.23;2.90;;;30.80;74.20;;;33.45;29.04;102225.31;4965215;28;20045;-75
2023/05/30 05:47:00;;;;;;;11.02;2.47;;;30.80;73.60;;;33.48;28.60;102232.31;4962424;28;20062;-75
2023/05/30 05:49:26;;;;;;;7.30;2.40;;;31.00;74.00;;;33.75;28.21;102238.19;4964205;28;20495;-75
2023/05/30 05:51:54;;;;;;;8.70;2.30;;;31.20;72.40;;;33.94;28.35;102240.31;4966283;28;20129;-75
2023/05/30 05:54:21;;;;;;;11.27;2.67;;;31.40;73.30;;;34.13;28.06;102251.72;4960519;28;20046;-75
2023/05/30 05:56:47;;;;;;;8.20;2.70;;;31.30;72.10;;;33.51;28.36;102251.03;4962583;28;20093;-74
2023/05/30 05:59:15;;;;;;;9.35;2.67;;;31.40;71.90;;;33.42;29.00;102257.63;4945843;28;20384;-74
2023/05/30 06:01:42;;;;;;;13.75;2.80;;;31.40;72.70;;;33.42;29.12;102255.72;4962693;28;20130;-75
2023/05/30 06:04:11;;;;;;;8.52;2.13;;;31.40;72.30;;;33.18;28.73;102261.44;4955286;28;20459;-74
2023/05/30 06:06:38;;;;;;;9.60;2.53;;;31.30;72.50;;;32.82;29.44;102253.84;4974984;28;20034;-75
2023/05/30 06:09:04;;;;;;;8.48;2.35;;;30.50;72.80;;;31.04;31.74;102239.63;4954101;28;20031;-74
2023/05/30 06:11:30;;;;;;;9.93;2.28;;;30.60;73.20;;;31.56;31.14;102233.81;4974394;28;20031;-75
2023/05/30 06:13:56;;;;;;;9.15;2.03;;;30.80;72.10;;;31.70;30.39;102234.94;4946788;28;20058;-74
2023/05/30 06:16:21;;;;;;;8.05;2.28;;;30.90;73.00;;;32.45;30.14;102245.38;4955137;28;20671;-75
2023/05/30 06:18:47;;;;;;;6.15;2.00;;;30.70;73.00;;;31.60;31.09;102243.34;4965761;28;20031;-74
2023/05/30 06:21:14;;;;;;;11.35;2.63;;;30.90;71.60;;;31.99;30.27;102250.72;4931536;28;20043;-74
2023/05/30 06:23:40;;;;;;;10.18;2.53;;;30.40;72.00;;;30.44;31.72;102232.56;4963023;28;20035;-74
2023/05/30 06:26:05;;;;;;;12.18;2.50;;;30.40;72.00;;;30.79;31.37;102241.44;4942988;28;20118;-75
2023/05/30 06:28:31;;;;;;;8.38;2.20;;;30.60;73.40;;;31.73;30.49;102241.91;4955136;28;20035;-75
2023/05/30 06:30:57;;;;;;;10.30;2.40;;;31.00;72.50;;;32.35;29.86;102266.53;4964526;28;20054;-74
2023/05/30 06:33:23;;;;;;;6.80;2.33;;;31.50;70.90;;;32.67;29.52;102261.97;4947894;28;20039;-75
2023/05/30 06:35:49;;;;;;;10.80;2.22;;;31.70;70.60;;;32.75;28.79;102256.47;4951321;28;20081;-75
2023/05/30 06:38:16;;;;;;;10.80;2.75;;;31.80;69.50;;;32.59;28.92;102256.56;4972992;28;20035;-75
2023/05/30 06:40:42;;;;;;;10.23;2.40;;;32.00;70.50;;;32.73;29.21;102257.69;4969496;28;20086;-75
2023/05/30 06:43:08;;;;;;;11.30;2.80;;;31.90;70.00;;;31.89;29.47;102245.44;4951865;28;20035;-76
2023/05/30 06:45:34;;;;;;;12.38;2.80;;;30.90;68.80;;;30.39;31.37;102229.47;4966830;28;20432;-74
2023/05/30 06:48:01;;;;;;;7.28;2.38;;;30.90;70.60;;;30.77;30.88;102236.16;4948315;28;20046;-75
2023/05/30 06:50:27;;;;;;;11.07;2.85;;;31.10;70.20;;;31.26;30.57;102240.81;4950884;28;20399;-74
2023/05/30 06:52:53;;;;;;;10.80;2.55;;;30.60;68.70;;;29.97;31.29;102222.19;4967136;28;20097;-74
2023/05/30 06:55:19;;;;;;;11.18;2.40;;;30.30;69.60;;;29.91;31.47;102215.53;4968297;28;20035;-74
2023/05/30 06:57:46;;;;;;;10.90;2.80;;;30.10;70.30;;;29.93;31.68;102218.09;4966717;28;20042;-74
2023/05/30 07:00:12;;;;;;;9.85;2.63;;;30.10;70.40;;;29.90;31.40;102229.28;4966540;28;20093;-74
2023/05/30 07:02:38;;;;;;;9.63;2.72;;;30.20;71.30;;;30.50;31.19;102234.63;4964787;28;20671;-75
2023/05/30 07:05:05;;;;;;;10.05;2.70;;;30.50;67.20;;;30.66;29.67;102242.78;4975190;28;20031;-74
2023/05/30 07:07:31;;;;;;;11.80;2.60;;;30.30;68.90;;;29.47;31.23;102236.47;4965689;28;20050;-75
2023/05/30 07:09:57;;;;;;;13.02;3.10;;;29.70;70.90;;;28.67;32.05;102215.63;4967488;28;20049;-75
2023/05/30 07:12:22;;;;;;;9.05;2.50;;;29.30;69.80;;;28.71;32.28;102217.03;4957407;28;20097;-75
2023/05/30 07:14:48;;;;;;;12.80;3.20;;;29.30;71.10;;;29.22;32.28;102214.59;4963177;28;20047;-75
2023/05/30 07:17:14;;;;;;;8.98;2.63;;;29.10;70.80;;;27.88;32.98;102192.72;4959034;28;20504;-74
2023/05/30 07:19:40;;;;;;;11.15;2.70;;;29.00;72.50;;;28.94;32.48;102217.41;4957781;28;20035;-74
2023/05/30 07:22:06;;;;;;;15.15;2.88;;;29.00;72.40;;;28.90;32.80;102215.16;4965180;28;20046;-74
2023/05/30 07:24:32;;;;;;;10.07;2.50;;;29.10;74.10;;;29.66;31.60;102228.13;4954658;28;20637;-75
2023/05/30 07:26:57;;;;;;;8.90;2.63;;;29.90;71.30;;;30.25;31.08;102236.38;4949541;28;20050;-74
2023/05/30 07:29:23;;;;;;;13.48;3.33;;;30.10;68.80;;;30.11;30.32;102245.16;4966879;28;20034;-74
2023/05/30 07:31:49;;;;;;;12.35;3.00;;;30.10;69.20;;;29.90;30.53;102235.56;4966293;28;20043;-75
2023/05/30 07:34:15;;;;;;;13.40;2.97;;;30.00;68.40;;;29.80;30.73;102235.69;4962350;28;20046;-74
2023/05/30 07:36:41;;;;;;;13.55;2.90;;;29.70;70.10;;;29.32;31.18;102228.06;4955081;28;20102;-74
2023/05/30 07:39:06;;;;;;;8.77;2.30;;;29.90;68.80;;;29.70;31.30;102234.97;4964924;28;20118;-75
2023/05/30 07:41:32;;;;;;;11.15;2.92;;;29.60;68.60;;;28.47;31.93;102227.56;4957646;28;20058;-74
2023/05/30 07:43:58;;;;;;;14.05;2.75;;;28.90;69.20;;;27.59;32.72;102215.31;4957779;28;20031;-73
2023/05/30 07:46:24;;;;;;;8.68;2.90;;;28.10;72.60;;;27.37;34.12;102205.69;4956080;28;20214;-73
2023/05/30 07:48:50;;;;;;;10.25;2.95;;;28.40;73.40;;;28.24;32.87;102206.34;4962892;28;20043;-74
2023/05/30 07:51:17;;;;;;;12.15;2.35;;;28.70;73.40;;;29.02;32.07;102211.19;4944610;28;20037;-73
2023/05/30 07:53:43;;;;;;;11.32;2.92;;;29.10;72.30;;;29.38;31.60;102219.31;4948450;28;20118;-74
2023/05/30 07:56:11;;;;;;;9.65;2.60;;;29.00;71.50;;;28.67;32.67;102212.09;4961564;28;20155;-74
2023/05/30 07:58:37;;;;;;;11.00;2.63;;;28.70;69.40;;;28.08;32.45;102206.16;4966087;28;20034;-74
2023/05/30 08:01:05;;;;;;;15.35;3.58;;;28.70;71.30;;;28.47;32.60;102209.50;4964904;28;20026;-74
2023/05/30 08:03:31;;;;;;;12.60;2.67;;;28.80;70.90;;;28.52;32.25;102209.91;4975559;28;20030;-74
2023/05/30 08:05:57;;;;;;;11.73;3.10;;;28.80;71.60;;;28.64;32.54;102218.66;4965570;28;20089;-73
2023/05/30 08:08:23;;;;;;;18.40;3.10;;;28.60;71.20;;;28.19;32.79;102208.69;4964694;28;20035;-73
2023/05/30 08:10:49;;;;;;;12.63;3.00;;;27.80;69.10;;;26.39;33.43;102188.63;4962335;28;20030;-73
2023/05/30 08:13:15;;;;;;;13.30;2.67;;;27.20;71.50;;;26.05;34.84;102174.63;4959184;28;20035;-72
2023/05/30 08:15:43;;;;;;;14.10;2.85;;;27.10;72.50;;;26.63;34.26;102181.13;4949450;28;20066;-73
2023/05/30 08:18:09;;;;;;;9.07;2.50;;;27.10;74.10;;;26.48;33.86;102186.03;4968972;28;20038;-73
2023/05/30 08:20:38;;;;;;;9.82;3.10;;;26.70;73.90;;;26.15;35.19;102174.63;4967441;28;20667;-72
2023/05/30 08:23:03;;;;;;;10.30;2.75;;;26.40;74.40;;;25.85;35.61;102167.41;4963284;28;20035;-74
2023/05/30 08:25:33;;;;;;;11.40;2.88;;;26.30;75.90;;;25.58;36.29;102169.72;4919967;28;20054;-74
2023/05/30 08:27:59;;;;;;;14.75;3.25;;;25.90;76.80;;;25.35;37.09;102168.19;4966376;28;20046;-73
2023/05/30 08:30:25;;;;;;;16.70;3.78;;;25.60;77.60;;;24.84;38.23;102163.53;4956788;28;20030;-73
2023/05/30 08:32:51;;;;;;;12.63;3.22;;;25.20;77.10;;;24.33;37.77;102162.38;4964221;28;20039;-74
2023/05/30 08:35:17;;;;;;;13.23;3.40;;;24.70;77.40;;;23.51;38.79;102147.38;4955167;28;20122;-73
2023/05/30 08:37:43;;;;;;;13.50;3.25;;;24.00;79.80;;;22.73;41.05;102143.53;4978146;28;20050;-73
2023/05/30 08:40:13;;;;;;;12.50;2.95;;;23.40;80.90;;;21.86;41.47;102129.38;4973298;28;20510;-73
2023/05/30 08:42:42;;;;;;;14.27;3.30;;;23.20;82.60;;;22.07;41.84;102139.50;4933071;28;20664;-73
2023/05/30 08:45:09;;;;;;;12.57;2.80;;;22.80;84.50;;;21.68;43.50;102133.38;4951074;28;20035;-72
2023/05/30 08:47:35;;;;;;;12.77;3.30;;;22.80;84.80;;;21.92;42.98;102145.03;4954555;28;20105;-73
2023/05/30 08:50:07;;;;;;;13.55;3.13;;;22.80;86.60;;;22.05;43.65;102149.47;4951383;28;20030;-73
2023/05/30 08:52:34;;;;;;;14.20;3.40;;;22.50;86.30;;;21.53;44.61;102145.19;4962299;28;20089;-75
2023/05/30 08:55:16;;;;;;;16.25;3.72;;;22.60;85.50;;;21.55;44.13;102140.56;4962546;28;20042;-72
2023/05/30 08:57:54;;;;;;;14.65;3.17;;;22.30;84.70;;;21.31;44.25;102141.28;4964967;28;20662;-73
2023/05/30 09:00:22;;;;;;;14.68;3.33;;;22.30;85.50;;;21.40;43.92;102140.66;4963831;28;20031;-73
2023/05/30 09:02:55;;;;;;;11.65;2.80;;;22.30;86.30;;;21.43;44.40;102139.63;4963501;28;20497;-75
2023/05/30 09:05:21;;;;;;;14.38;3.08;;;22.40;87.90;;;21.60;44.86;102141.13;4965553;28;20496;-74
2023/05/30 09:07:49;;;;;;;15.15;3.42;;;22.30;85.30;;;21.55;43.43;102148.63;4962731;28;20046;-73
2023/05/30 09:10:18;;;;;;;10.98;3.08;;;22.30;87.00;;;21.35;44.25;102150.00;4948703;28;20027;-73
2023/05/30 09:12:47;;;;;;;16.58;3.55;;;22.00;86.20;;;20.90;45.47;102135.16;4947102;28;20034;-73
2023/05/30 09:15:13;;;;;;;15.35;2.92;;;21.90;86.30;;;20.78;45.11;102133.31;4956375;28;20039;-75
2023/05/30 09:17:39;;;;;;;13.93;3.15;;;21.60;88.40;;;20.47;46.09;102119.28;4965194;28;21250;-75
2023/05/30 09:20:11;;;;;;;13.60;3.13;;;21.70;89.40;;;20.85;46.09;102131.94;4947543;28;20043;-74
2023/05/30 09:22:37;;;;;;;12.18;2.30;;;21.60;88.30;;;20.57;46.04;102130.25;4961426;28;20570;-75
2023/05/30 09:25:07;;;;;;;12.27;3.28;;;21.80;90.20;;;20.97;45.92;102134.72;4980639;28;20034;-74
2023/05/30 09:27:37;;;;;;;14.73;3.20;;;21.60;85.50;;;20.48;45.29;102137.06;4952438;28;20397;-74
2023/05/30 09:30:12;;;;;;;19.73;3.55;;;21.20;84.60;;;19.89;45.22;102133.75;4947450;28;20062;-77
2023/05/30 09:32:42;;;;;;;12.15;2.70;;;21.00;89.50;;;19.74;47.11;102132.06;4978342;28;20542;-74
2023/05/30 09:35:12;;;;;;;13.02;2.72;;;20.90;85.50;;;19.85;44.54;102133.13;4953448;28;20126;-74
2023/05/30 09:37:47;;;;;;;13.98;3.03;;;21.00;84.90;;;20.10;44.87;102152.91;4967161;28;20054;-73
2023/05/30 09:40:17;;;;;;;10.95;3.05;;;21.10;89.50;;;20.28;45.76;102149.06;4979474;28;20042;-73
2023/05/30 09:42:52;;;;;;;8.43;2.78;;;21.40;85.20;;;20.82;43.01;102153.56;4965348;28;20043;-74
2023/05/30 09:45:26;;;;;;;12.55;2.67;;;21.60;84.80;;;21.02;43.14;102156.72;4963229;28;20034;-74
2023/05/30 09:47:55;;;;;;;13.00;2.92;;;21.30;83.10;;;20.31;43.25;102153.34;4950944;28;20027;-74
2023/05/30 09:50:23;;;;;;;12.32;2.95;;;21.40;85.30;;;20.43;43.81;102149.00;4932311;28;20034;-73
2023/05/30 09:52:55;;;;;;;11.10;3.03;;;21.40;86.40;;;20.44;44.26;102145.38;4935448;28;20065;-74
2023/05/30 09:55:23;;;;;;;13.05;3.28;;;21.30;86.20;;;20.33;44.91;102139.88;4937411;28;20542;-74
2023/05/30 09:57:54;;;;;;;8.57;2.20;;;21.50;85.80;;;20.60;44.07;102154.13;4955955;28;20038;-73
2023/05/30 10:00:29;;;;;;;12.23;2.78;;;21.30;85.90;;;20.23;44.92;102147.63;4963152;28;20060;-74
2023/05/30 10:02:59;;;;;;;11.75;3.00;;;21.40;87.60;;;20.65;45.04;102149.34;4951050;28;20473;-73
2023/05/30 10:05:34;;;;;;;11.93;2.45;;;21.50;86.30;;;20.67;44.27;102144.75;4937527;28;20030;-73
2023/05/30 10:08:00;;;;;;;5.32;2.00;;;21.40;84.50;;;20.16;43.55;102146.34;4974656;28;20043;-74
2023/05/30 10:10:32;;;;;;;15.93;2.95;;;21.10;83.80;;;19.96;44.21;102148.47;4963263;28;20034;-74
2023/05/30 10:13:00;;;;;;;9.38;2.78;;;21.10;84.50;;;20.16;44.14;102155.19;4959607;28;20038;-73
2023/05/30 10:15:32;;;;;;;11.35;3.00;;;21.40;86.50;;;20.62;44.03;102162.06;4937269;28;20106;-74